createdAt,value
2023-05-19T00:01:45.121Z,9.00
2023-05-19T00:06:51.569Z,9.00
2023-05-19T00:11:53.896Z,9.00
2023-05-19T00:16:57.647Z,9.01
2023-05-19T00:21:59.590Z,9.01
2023-05-19T00:27:01.425Z,9.02
2023-05-19T00:32:03.572Z,9.00
2023-05-19T00:37:05.637Z,8.97
2023-05-19T00:42:07.619Z,8.97
2023-05-19T00:47:09.457Z,8.95
2023-05-19T00:52:11.400Z,8.91
2023-05-19T00:57:14.984Z,8.88
2023-05-19T01:02:17.589Z,8.85
2023-05-19T01:07:20.893Z,8.84
2023-05-19T01:12:23.089Z,8.84
2023-05-19T01:17:49.138Z,8.84
2023-05-19T01:23:17.546Z,8.85
2023-05-19T01:28:44.326Z,10.25
2023-05-19T01:33:47.710Z,13.56
2023-05-19T01:38:57.770Z,14.58
2023-05-19T01:44:00.057Z,12.70
2023-05-19T01:49:02.567Z,11.34
2023-05-19T01:54:04.431Z,10.52
2023-05-19T01:59:28.115Z,9.95
2023-05-19T02:04:55.722Z,9.60
2023-05-19T02:10:23.940Z,9.42
2023-05-19T02:15:33.574Z,9.29
2023-05-19T02:20:35.479Z,9.22
2023-05-19T02:25:37.828Z,9.14
2023-05-19T02:30:39.603Z,9.10
2023-05-19T02:35:41.362Z,9.07
2023-05-19T02:40:43.278Z,9.03
2023-05-19T02:45:45.218Z,10.21
2023-05-19T02:50:47.004Z,13.84
2023-05-19T02:55:48.872Z,14.61
2023-05-19T03:00:51.161Z,12.82
2023-05-19T03:05:53.493Z,11.66
2023-05-19T03:10:55.224Z,10.86
2023-05-19T03:15:58.756Z,10.29
2023-05-19T03:21:00.858Z,9.87
2023-05-19T03:26:02.801Z,9.58
2023-05-19T03:31:04.692Z,9.40
2023-05-19T03:36:07.500Z,9.33
2023-05-19T03:41:09.264Z,9.30
2023-05-19T03:46:13.974Z,10.45
2023-05-19T03:51:16.085Z,13.97
2023-05-19T03:56:17.867Z,14.47
2023-05-19T04:01:19.846Z,12.87
2023-05-19T04:06:21.722Z,11.93
2023-05-19T04:11:23.623Z,11.27
2023-05-19T04:16:25.712Z,10.75
2023-05-19T04:21:27.776Z,10.36
2023-05-19T04:26:30.670Z,10.09
2023-05-19T04:31:33.896Z,9.91
2023-05-19T04:36:37.315Z,9.82
2023-05-19T04:41:40.080Z,9.78
2023-05-19T04:46:42.313Z,11.00
2023-05-19T04:51:45.678Z,14.12
2023-05-19T04:56:47.450Z,14.57
2023-05-19T05:01:49.410Z,12.98
2023-05-19T05:06:51.524Z,12.01
2023-05-19T05:11:54.018Z,11.45
2023-05-19T05:16:56.492Z,11.15
2023-05-19T05:22:00.000Z,10.97
2023-05-19T05:27:01.833Z,10.86
2023-05-19T05:32:04.014Z,10.82
2023-05-19T05:37:06.386Z,10.85
2023-05-19T05:42:12.048Z,10.93
2023-05-19T05:47:15.251Z,11.03
2023-05-19T05:52:20.750Z,11.08
2023-05-19T05:57:23.211Z,11.27
2023-05-19T06:02:25.321Z,11.48
2023-05-19T06:07:27.366Z,11.60
2023-05-19T06:12:29.158Z,11.76
2023-05-19T06:17:31.304Z,11.89
2023-05-19T06:22:33.410Z,11.99
2023-05-19T06:27:35.692Z,12.08
2023-05-19T06:32:37.727Z,12.16
2023-05-19T06:37:39.756Z,12.30
2023-05-19T06:42:41.643Z,12.40
2023-05-19T06:47:44.810Z,12.64
2023-05-19T06:52:46.719Z,12.89
2023-05-19T06:57:48.618Z,12.99
2023-05-19T07:02:50.599Z,13.14
2023-05-19T07:07:52.667Z,13.32
2023-05-19T07:12:54.630Z,13.54
2023-05-19T07:17:58.292Z,13.75
2023-05-19T07:23:02.279Z,13.94
2023-05-19T07:28:04.470Z,14.22
2023-05-19T07:33:06.563Z,14.48
2023-05-19T07:38:08.326Z,14.70
2023-05-19T07:43:11.142Z,14.84
2023-05-19T07:48:13.434Z,14.87
2023-05-19T07:53:15.590Z,14.97
2023-05-19T07:58:17.484Z,15.07
2023-05-19T08:03:20.294Z,15.24
2023-05-19T08:08:22.760Z,15.41
2023-05-19T08:13:24.833Z,15.62
2023-05-19T08:18:26.722Z,15.73
2023-05-19T08:23:28.922Z,15.97
2023-05-19T08:28:31.000Z,16.25
2023-05-19T08:33:32.869Z,16.47
2023-05-19T08:38:34.752Z,16.67
2023-05-19T08:43:37.140Z,16.84
2023-05-19T08:48:43.645Z,16.99
2023-05-19T08:53:53.130Z,17.03
2023-05-19T08:58:59.751Z,16.99
2023-05-19T09:04:03.398Z,16.95
2023-05-19T09:09:05.872Z,17.01
2023-05-19T09:14:07.655Z,17.08
2023-05-19T09:19:16.739Z,17.14
2023-05-19T09:24:18.775Z,17.24
2023-05-19T09:29:20.666Z,17.27
2023-05-19T09:34:24.405Z,17.29
2023-05-19T09:39:28.312Z,17.34
2023-05-19T09:44:30.995Z,17.32
2023-05-19T09:49:32.981Z,17.07
2023-05-19T09:54:35.180Z,16.87
2023-05-19T09:59:38.775Z,16.98
2023-05-19T10:04:42.363Z,17.07
2023-05-19T10:09:45.702Z,16.91
2023-05-19T10:14:49.426Z,16.82
2023-05-19T10:19:54.211Z,16.76
2023-05-19T10:24:56.248Z,16.76
2023-05-19T10:30:05.583Z,16.74
2023-05-19T10:35:25.852Z,16.75
2023-05-19T10:40:34.036Z,16.66
2023-05-19T10:45:48.754Z,16.61
2023-05-19T10:50:56.337Z,16.61
2023-05-19T10:56:04.555Z,16.54
2023-05-19T11:01:09.565Z,16.47
2023-05-19T11:06:30.647Z,16.45
2023-05-19T11:11:48.056Z,16.31
2023-05-19T11:16:53.168Z,16.14
2023-05-19T11:21:57.093Z,15.96
2023-05-19T11:26:58.930Z,15.84
2023-05-19T11:32:01.239Z,15.62
2023-05-19T11:37:04.732Z,15.37
2023-05-19T11:42:15.439Z,15.15
2023-05-19T11:47:17.395Z,15.03
2023-05-19T11:52:22.614Z,14.93
2023-05-19T11:57:24.487Z,14.80
2023-05-19T12:02:27.560Z,14.66
2023-05-19T12:07:29.860Z,14.55
2023-05-19T12:12:31.714Z,14.39
2023-05-19T12:17:34.414Z,14.17
2023-05-19T12:22:37.500Z,14.01
2023-05-19T12:27:42.246Z,13.92
2023-05-19T12:32:46.484Z,14.60
2023-05-19T12:37:48.877Z,16.96
2023-05-19T12:42:52.918Z,16.77
2023-05-19T12:47:55.616Z,15.48
2023-05-19T12:52:59.319Z,14.83
2023-05-19T12:58:06.694Z,14.49
2023-05-19T13:03:16.500Z,14.24
2023-05-19T13:08:21.294Z,14.00
2023-05-19T13:13:23.224Z,15.16
2023-05-19T13:18:27.060Z,17.98
2023-05-19T13:23:28.912Z,17.89
2023-05-19T13:28:31.102Z,15.94
2023-05-19T13:33:33.383Z,14.97
2023-05-19T13:38:35.369Z,14.50
2023-05-19T13:43:37.599Z,14.19
2023-05-19T13:48:39.669Z,13.92
2023-05-19T13:53:42.232Z,13.70
2023-05-19T13:58:44.304Z,13.52
2023-05-19T14:03:46.162Z,13.40
2023-05-19T14:08:48.064Z,13.24
2023-05-19T14:13:52.520Z,13.10
2023-05-19T14:18:54.811Z,13.09
2023-05-19T14:23:57.635Z,14.39
2023-05-19T14:29:00.139Z,17.70
2023-05-19T14:34:02.286Z,17.96
2023-05-19T14:39:04.180Z,16.20
2023-05-19T14:44:06.344Z,15.29
2023-05-19T14:49:08.524Z,14.76
2023-05-19T14:54:10.589Z,14.49
2023-05-19T14:59:12.468Z,14.37
2023-05-19T15:04:14.341Z,14.20
2023-05-19T15:09:16.689Z,14.06
2023-05-19T15:14:18.617Z,13.89
2023-05-19T15:19:21.099Z,13.75
2023-05-19T15:24:23.971Z,13.61
2023-05-19T15:29:26.088Z,14.74
2023-05-19T15:34:28.211Z,17.95
2023-05-19T15:39:31.095Z,18.63
2023-05-19T15:44:33.060Z,16.83
2023-05-19T15:49:35.241Z,15.60
2023-05-19T15:54:37.152Z,14.86
2023-05-19T15:59:39.209Z,14.44
2023-05-19T16:04:41.181Z,14.16
2023-05-19T16:09:43.168Z,13.97
2023-05-19T16:14:45.034Z,13.85
2023-05-19T16:19:46.855Z,13.79
2023-05-19T16:24:48.996Z,13.71
2023-05-19T16:29:50.887Z,13.67
2023-05-19T16:34:52.952Z,13.66
2023-05-19T16:39:54.949Z,13.64
2023-05-19T16:44:57.118Z,13.58
2023-05-19T16:49:59.013Z,13.51
2023-05-19T16:55:00.979Z,13.43
2023-05-19T17:00:03.775Z,13.37
2023-05-19T17:05:06.294Z,13.33
2023-05-19T17:10:09.383Z,14.48
2023-05-19T17:15:11.586Z,17.64
2023-05-19T17:20:13.540Z,17.03
2023-05-19T17:25:16.060Z,15.57
2023-05-19T17:30:18.003Z,14.73
2023-05-19T17:35:20.190Z,14.13
2023-05-19T17:40:22.083Z,13.72
2023-05-19T17:45:24.359Z,13.46
2023-05-19T17:50:26.240Z,13.28
2023-05-19T17:55:30.529Z,14.48
2023-05-19T18:00:33.013Z,17.74
2023-05-19T18:05:36.927Z,18.26
2023-05-19T18:10:42.265Z,16.39
2023-05-19T18:15:44.239Z,15.24
2023-05-19T18:20:46.209Z,14.50
2023-05-19T18:25:51.175Z,14.00
2023-05-19T18:31:05.370Z,13.60
2023-05-19T18:36:08.110Z,13.29
2023-05-19T18:41:10.104Z,13.05
2023-05-19T18:46:12.977Z,13.68
2023-05-19T18:51:15.485Z,15.94
2023-05-19T18:56:30.608Z,17.44
2023-05-19T19:01:32.487Z,17.45
2023-05-19T19:06:34.482Z,15.68
2023-05-19T19:11:36.621Z,14.54
2023-05-19T19:16:38.741Z,13.81
2023-05-19T19:21:41.506Z,13.28
2023-05-19T19:26:43.494Z,14.04
2023-05-19T19:31:45.742Z,16.32
2023-05-19T19:36:47.987Z,17.47
2023-05-19T19:41:50.137Z,16.38
2023-05-19T19:46:52.272Z,14.82
2023-05-19T19:51:54.349Z,13.93
2023-05-19T19:56:56.286Z,13.35
2023-05-19T20:01:58.277Z,14.07
2023-05-19T20:07:00.452Z,16.37
2023-05-19T20:12:02.429Z,17.46
2023-05-19T20:17:05.020Z,17.27
2023-05-19T20:22:06.909Z,15.38
2023-05-19T20:27:09.205Z,14.17
2023-05-19T20:32:11.268Z,14.35
2023-05-19T20:37:13.457Z,16.48
2023-05-19T20:42:15.464Z,17.58
2023-05-19T20:47:18.958Z,17.37
2023-05-19T20:52:21.136Z,15.46
2023-05-19T20:57:23.151Z,14.20
2023-05-19T21:02:25.000Z,13.41
2023-05-19T21:07:27.089Z,13.98
2023-05-19T21:12:33.456Z,16.12
2023-05-19T21:17:35.660Z,17.10
2023-05-19T21:22:37.893Z,16.95
2023-05-19T21:27:40.123Z,15.18
2023-05-19T21:32:42.364Z,14.02
2023-05-19T21:37:44.286Z,13.30
2023-05-19T21:42:46.262Z,13.75
2023-05-19T21:47:48.053Z,15.94
2023-05-19T21:52:50.010Z,17.12
2023-05-19T21:57:51.819Z,17.05
2023-05-19T22:02:53.804Z,15.38
2023-05-19T22:07:55.661Z,14.21
2023-05-19T22:12:58.352Z,13.46
2023-05-19T22:18:00.229Z,13.87
2023-05-19T22:23:03.229Z,16.07
2023-05-19T22:28:07.460Z,17.21
2023-05-19T22:33:11.010Z,17.03
2023-05-19T22:38:12.952Z,15.25
2023-05-19T22:43:14.759Z,14.16
2023-05-19T22:48:16.804Z,13.44
2023-05-19T22:53:18.686Z,12.92
2023-05-19T22:58:20.618Z,13.45
2023-05-19T23:03:22.537Z,15.71
2023-05-19T23:08:24.314Z,17.08
2023-05-19T23:13:26.236Z,17.04
2023-05-19T23:18:28.172Z,15.29
2023-05-19T23:23:29.871Z,14.11
2023-05-19T23:28:31.824Z,13.33
2023-05-19T23:33:33.596Z,13.67
2023-05-19T23:38:37.228Z,15.88
2023-05-19T23:43:39.109Z,17.18
2023-05-19T23:48:41.088Z,17.04
2023-05-19T23:53:42.854Z,15.30
2023-05-19T23:58:44.648Z,14.21
